Time;durP1;ratioP1;P1;durP2;ratioP2;P2;SDS_P1;SDS_P2;PMS_P1;PMS_P2;Temp;Humidity;BMP_temperature;BMP_pressure;BME280_temperature;BME280_humidity;BME280_pressure;Samples;Min_cycle;Max_cycle;Signal;HPM_P1;HPM_P2
2021/09/03 00:02:15;;;;;;;7.33;6.53;;;17.50;99.90;;;;;;4991956;28;20734;-69
2021/09/03 00:04:41;;;;;;;7.90;5.73;;;17.40;99.90;;;;;;5003069;28;20531;-70
2021/09/03 00:07:07;;;;;;;8.17;6.37;;;17.40;99.90;;;;;;4996207;28;20563;-69
2021/09/03 00:09:33;;;;;;;7.40;6.70;;;17.40;99.90;;;;;;5012146;28;20262;-69
2021/09/03 00:11:58;;;;;;;10.00;6.23;;;17.40;99.90;;;;;;4992796;28;20593;-70
2021/09/03 00:14:24;;;;;;;6.60;5.50;;;17.40;99.90;;;;;;4995053;28;20564;-69
2021/09/03 00:16:50;;;;;;;8.27;6.07;;;17.40;99.90;;;;;;4993476;28;20575;-69
2021/09/03 00:19:15;;;;;;;9.37;6.70;;;17.40;99.90;;;;;;4995334;28;20217;-69
2021/09/03 00:21:41;;;;;;;8.43;6.27;;;17.30;99.90;;;;;;4997565;28;20232;-69
2021/09/03 00:24:07;;;;;;;7.77;6.20;;;17.30;99.90;;;;;;4999118;28;20217;-69
2021/09/03 00:26:33;;;;;;;6.90;5.80;;;17.20;99.90;;;;;;4995222;28;20462;-69
2021/09/03 00:28:59;;;;;;;7.27;6.23;;;17.20;99.90;;;;;;4993834;28;20221;-69
2021/09/03 00:31:24;;;;;;;7.50;5.83;;;17.20;99.90;;;;;;4994350;28;20953;-69
2021/09/03 00:33:50;;;;;;;7.40;6.13;;;17.20;99.90;;;;;;4993524;28;20360;-69
2021/09/03 00:36:15;;;;;;;7.07;6.10;;;17.20;99.90;;;;;;5011401;28;20221;-69
2021/09/03 00:38:41;;;;;;;7.00;5.77;;;17.20;99.90;;;;;;5011053;28;20729;-69
2021/09/03 00:41:07;;;;;;;9.33;6.13;;;17.20;99.90;;;;;;4995528;28;20233;-69
2021/09/03 00:43:33;;;;;;;8.50;6.20;;;17.20;99.90;;;;;;5010420;28;20217;-68
2021/09/03 00:45:59;;;;;;;10.73;5.47;;;17.20;99.90;;;;;;4990372;28;20709;-70
2021/09/03 00:48:24;;;;;;;7.53;5.73;;;17.20;99.90;;;;;;5020534;28;20455;-69
2021/09/03 00:50:53;;;;;;;8.27;6.00;;;17.10;99.90;;;;;;5011283;28;20300;-69
2021/09/03 00:53:19;;;;;;;9.37;6.40;;;17.10;99.90;;;;;;5007607;28;20224;-69
2021/09/03 00:55:46;;;;;;;6.90;5.97;;;17.10;99.90;;;;;;4990136;28;20539;-69
2021/09/03 00:58:12;;;;;;;7.37;5.93;;;17.10;99.90;;;;;;4992553;28;21039;-68
2021/09/03 01:00:37;;;;;;;8.00;6.00;;;17.00;99.90;;;;;;5008248;28;20452;-68
2021/09/03 01:03:03;;;;;;;8.37;5.73;;;17.00;99.90;;;;;;4999479;28;20599;-68
2021/09/03 01:05:29;;;;;;;9.40;6.43;;;16.90;99.90;;;;;;4991752;28;20255;-69
2021/09/03 01:07:56;;;;;;;6.23;5.57;;;16.90;99.90;;;;;;4990282;28;20221;-70
2021/09/03 01:10:22;;;;;;;7.40;6.23;;;16.90;99.90;;;;;;4992514;28;20471;-69
2021/09/03 01:12:49;;;;;;;8.60;5.17;;;16.90;99.90;;;;;;4988931;28;20498;-69
2021/09/03 01:15:16;;;;;;;7.13;5.77;;;16.80;99.90;;;;;;4992003;28;20456;-69
2021/09/03 01:17:42;;;;;;;7.80;5.63;;;16.80;99.90;;;;;;4989922;28;20461;-70
2021/09/03 01:20:09;;;;;;;7.97;6.63;;;16.80;99.90;;;;;;4992005;28;20456;-69
2021/09/03 01:22:35;;;;;;;7.17;5.80;;;16.80;99.90;;;;;;5014792;28;20476;-69
2021/09/03 01:25:01;;;;;;;8.00;6.03;;;16.80;99.90;;;;;;4989545;28;20495;-69
2021/09/03 01:27:27;;;;;;;8.40;6.30;;;16.70;99.90;;;;;;5007566;28;20228;-69
2021/09/03 01:29:52;;;;;;;8.23;6.30;;;16.70;99.90;;;;;;4987794;28;20213;-69
2021/09/03 01:32:19;;;;;;;7.67;6.07;;;16.70;99.90;;;;;;4990092;28;20749;-69
2021/09/03 01:34:45;;;;;;;7.60;6.10;;;16.70;99.90;;;;;;4989637;28;20225;-69
2021/09/03 01:37:11;;;;;;;10.30;7.20;;;16.70;99.90;;;;;;5007139;28;20459;-69
2021/09/03 01:39:36;;;;;;;7.47;5.53;;;16.70;99.90;;;;;;4991650;28;20236;-69
2021/09/03 01:42:02;;;;;;;6.80;5.30;;;16.70;99.90;;;;;;4988685;28;21033;-68
2021/09/03 01:44:28;;;;;;;6.17;5.20;;;16.60;99.90;;;;;;5007942;28;20460;-69
2021/09/03 01:46:55;;;;;;;7.00;5.57;;;16.70;99.90;;;;;;4989740;28;20827;-69
2021/09/03 01:49:20;;;;;;;7.57;6.20;;;16.60;99.90;;;;;;4996028;28;20222;-68
2021/09/03 01:51:46;;;;;;;11.80;6.00;;;16.60;99.90;;;;;;5004689;28;20461;-69
2021/09/03 01:54:12;;;;;;;7.87;6.10;;;16.60;99.90;;;;;;4987593;28;20210;-69
2021/09/03 01:56:38;;;;;;;6.77;5.53;;;16.60;99.90;;;;;;4989341;28;20245;-69
2021/09/03 01:59:04;;;;;;;8.70;5.63;;;16.60;99.90;;;;;;4986001;28;20218;-69
2021/09/03 02:01:30;;;;;;;7.10;5.77;;;16.60;99.90;;;;;;4988876;28;20476;-69
2021/09/03 02:03:55;;;;;;;6.03;5.43;;;16.50;99.90;;;;;;4983717;28;20455;-70
2021/09/03 02:06:21;;;;;;;7.50;5.80;;;16.50;99.90;;;;;;4990980;28;20593;-69
2021/09/03 02:08:47;;;;;;;8.27;5.47;;;16.50;99.90;;;;;;4988950;28;20259;-69
2021/09/03 02:11:12;;;;;;;6.67;4.70;;;16.50;99.90;;;;;;5004217;28;20248;-69
2021/09/03 02:13:39;;;;;;;11.33;6.20;;;16.50;99.90;;;;;;5006773;28;20229;-69
2021/09/03 02:16:05;;;;;;;9.17;6.67;;;16.40;99.90;;;;;;5005385;28;20225;-69
2021/09/03 02:18:31;;;;;;;7.90;5.70;;;16.40;99.90;;;;;;5007242;28;21035;-68
2021/09/03 02:20:56;;;;;;;7.60;5.90;;;16.40;99.90;;;;;;4987918;28;20225;-69
2021/09/03 02:23:23;;;;;;;8.70;6.60;;;16.40;99.90;;;;;;5015621;28;20736;-69
2021/09/03 02:25:48;;;;;;;8.30;6.23;;;16.40;99.90;;;;;;4988698;28;20777;-69
2021/09/03 02:28:15;;;;;;;7.90;5.57;;;16.40;99.90;;;;;;5006117;28;20535;-68
2021/09/03 02:30:42;;;;;;;7.90;5.13;;;16.30;99.90;;;;;;4989926;28;20213;-69
2021/09/03 02:33:08;;;;;;;8.20;5.60;;;16.30;99.90;;;;;;5002834;28;20514;-69
2021/09/03 02:35:34;;;;;;;7.50;5.93;;;16.30;99.90;;;;;;4989865;28;20444;-69
2021/09/03 02:37:59;;;;;;;7.50;5.70;;;16.30;99.90;;;;;;4988338;28;20725;-69
2021/09/03 02:40:26;;;;;;;9.03;6.40;;;16.30;99.90;;;;;;5005802;28;20702;-69
2021/09/03 02:42:52;;;;;;;6.90;6.10;;;16.30;99.90;;;;;;4987629;28;20244;-69
2021/09/03 02:45:18;;;;;;;7.23;5.80;;;16.30;99.90;;;;;;5007085;28;20888;-68
2021/09/03 02:47:43;;;;;;;8.30;7.20;;;16.20;99.90;;;;;;5000868;28;20212;-68
2021/09/03 02:50:09;;;;;;;6.20;5.60;;;16.20;99.90;;;;;;5006211;28;20457;-69
2021/09/03 02:52:35;;;;;;;8.43;4.97;;;16.20;99.90;;;;;;4989732;28;20640;-69
2021/09/03 02:55:01;;;;;;;8.40;5.10;;;16.20;99.90;;;;;;5003715;28;20302;-69
2021/09/03 02:57:26;;;;;;;12.00;6.53;;;16.10;99.90;;;;;;4990286;28;20217;-69
2021/09/03 02:59:52;;;;;;;9.03;6.43;;;16.10;99.90;;;;;;4988306;28;20694;-69
2021/09/03 03:02:18;;;;;;;6.67;5.60;;;16.10;99.90;;;;;;5002199;28;20229;-69
2021/09/03 03:04:44;;;;;;;7.03;5.30;;;16.10;99.90;;;;;;5003746;28;20505;-69
2021/09/03 03:07:10;;;;;;;6.37;5.50;;;16.00;99.90;;;;;;5006347;28;20456;-68
2021/09/03 03:09:35;;;;;;;7.40;5.53;;;16.00;99.90;;;;;;5006399;28;20299;-69
2021/09/03 03:12:02;;;;;;;6.83;6.00;;;16.00;99.90;;;;;;5000122;28;20235;-68
2021/09/03 03:14:28;;;;;;;7.77;5.40;;;15.90;99.90;;;;;;4988651;28;20213;-69
2021/09/03 03:16:55;;;;;;;10.10;5.97;;;15.90;99.90;;;;;;4999269;28;20460;-69
2021/09/03 03:19:21;;;;;;;12.33;6.53;;;15.90;99.90;;;;;;4990000;28;20547;-69
2021/09/03 03:21:47;;;;;;;7.97;5.87;;;15.90;99.90;;;;;;5004884;28;20483;-69
2021/09/03 03:24:13;;;;;;;6.87;5.10;;;15.90;99.90;;;;;;5000892;28;20519;-68
2021/09/03 03:26:38;;;;;;;7.70;5.93;;;15.90;99.90;;;;;;4989806;28;20217;-69
2021/09/03 03:29:04;;;;;;;7.40;5.90;;;15.90;99.90;;;;;;5005648;28;20213;-69
2021/09/03 03:31:32;;;;;;;8.47;6.20;;;15.90;99.90;;;;;;5005208;28;20224;-69
2021/09/03 03:34:02;;;;;;;7.83;5.87;;;15.80;99.90;;;;;;5003696;28;20224;-69
2021/09/03 03:36:28;;;;;;;14.87;7.30;;;15.70;99.90;;;;;;5005783;28;20460;-70
2021/09/03 03:38:54;;;;;;;10.87;7.67;;;15.70;99.90;;;;;;4987748;28;20499;-69
2021/09/03 03:41:20;;;;;;;7.43;5.97;;;15.70;99.90;;;;;;4988887;28;20479;-69
2021/09/03 03:43:45;;;;;;;11.03;7.10;;;15.70;99.90;;;;;;4987680;28;20496;-68
2021/09/03 03:46:11;;;;;;;7.70;6.10;;;15.70;99.90;;;;;;4988928;28;20275;-69
2021/09/03 03:48:37;;;;;;;7.93;5.87;;;15.70;99.90;;;;;;4993733;28;20216;-69
2021/09/03 03:51:03;;;;;;;7.77;6.40;;;15.70;99.90;;;;;;5003965;28;20292;-69
2021/09/03 03:53:28;;;;;;;8.17;6.40;;;15.70;99.90;;;;;;5005632;28;20220;-69
2021/09/03 03:55:54;;;;;;;7.87;5.97;;;15.70;99.90;;;;;;4984441;28;20213;-68
2021/09/03 03:58:20;;;;;;;8.20;6.00;;;15.60;99.90;;;;;;5002606;28;20214;-69
2021/09/03 04:00:46;;;;;;;9.07;6.37;;;15.60;99.90;;;;;;4980962;28;20228;-68
2021/09/03 04:03:12;;;;;;;7.50;5.10;;;15.60;99.90;;;;;;4988784;28;20318;-69
2021/09/03 04:05:38;;;;;;;9.20;6.40;;;15.60;99.90;;;;;;5005582;28;20693;-69
2021/09/03 04:08:04;;;;;;;8.07;6.10;;;15.50;99.90;;;;;;4987720;28;20456;-69
2021/09/03 04:10:29;;;;;;;7.20;5.73;;;15.50;99.90;;;;;;5005976;28;20460;-69
2021/09/03 04:12:55;;;;;;;8.47;6.10;;;15.50;99.90;;;;;;4986606;28;20224;-69
2021/09/03 04:15:21;;;;;;;10.47;7.20;;;15.50;99.90;;;;;;5005935;28;20221;-69
2021/09/03 04:17:47;;;;;;;9.23;6.67;;;15.50;99.90;;;;;;5002545;28;20225;-69
2021/09/03 04:20:13;;;;;;;8.00;5.80;;;15.50;99.90;;;;;;5003276;28;20459;-69
2021/09/03 04:22:38;;;;;;;9.10;5.80;;;15.50;99.90;;;;;;5001596;28;20234;-69
2021/09/03 04:25:06;;;;;;;6.33;4.87;;;15.50;99.90;;;;;;5010530;28;20630;-69
2021/09/03 04:27:32;;;;;;;8.43;6.03;;;15.40;99.90;;;;;;5002633;28;20221;-69
2021/09/03 04:29:58;;;;;;;9.57;6.53;;;15.30;99.90;;;;;;4990310;28;20470;-69
2021/09/03 04:32:24;;;;;;;10.43;6.20;;;15.40;99.90;;;;;;5007968;28;20456;-68
2021/09/03 04:34:49;;;;;;;8.10;5.93;;;15.40;99.90;;;;;;5003667;28;20295;-69
2021/09/03 04:37:15;;;;;;;8.30;6.23;;;15.30;99.90;;;;;;5009074;28;20275;-69
2021/09/03 04:39:41;;;;;;;8.10;5.87;;;15.30;99.90;;;;;;4992548;28;20217;-69
2021/09/03 04:42:07;;;;;;;10.07;6.07;;;15.30;99.90;;;;;;5007883;28;20668;-68
2021/09/03 04:44:32;;;;;;;7.03;5.17;;;15.30;99.90;;;;;;5009197;28;20229;-69
2021/09/03 04:46:58;;;;;;;8.47;6.13;;;15.30;99.90;;;;;;5021333;28;20311;-69
2021/09/03 04:49:24;;;;;;;9.03;5.73;;;15.30;99.90;;;;;;4991664;28;20213;-69
2021/09/03 04:51:50;;;;;;;9.00;6.33;;;15.30;99.90;;;;;;4989869;28;20217;-69
2021/09/03 04:54:15;;;;;;;7.63;5.80;;;15.20;99.90;;;;;;5006647;28;20214;-69
2021/09/03 04:56:42;;;;;;;9.10;6.70;;;15.20;99.90;;;;;;5008442;28;20217;-69
2021/09/03 04:59:07;;;;;;;9.00;5.77;;;15.20;99.90;;;;;;4992377;28;20217;-69
2021/09/03 05:01:33;;;;;;;6.63;5.47;;;15.20;99.90;;;;;;5006797;28;20472;-69
2021/09/03 05:03:59;;;;;;;9.50;6.77;;;15.20;99.90;;;;;;5001840;28;20232;-69
2021/09/03 05:06:24;;;;;;;8.33;5.87;;;15.20;99.90;;;;;;4987031;28;20715;-69
2021/09/03 05:08:50;;;;;;;9.70;6.10;;;15.10;99.90;;;;;;5000714;28;20271;-69
2021/09/03 05:11:16;;;;;;;9.40;6.90;;;15.10;99.90;;;;;;4986663;28;20311;-69
2021/09/03 05:13:41;;;;;;;8.37;5.43;;;15.10;99.90;;;;;;5007120;28;20227;-69
2021/09/03 05:16:07;;;;;;;11.03;6.50;;;15.10;99.90;;;;;;4990635;28;20225;-68
2021/09/03 05:18:33;;;;;;;11.87;7.30;;;15.10;99.90;;;;;;5007866;28;20267;-69
2021/09/03 05:20:59;;;;;;;8.87;5.97;;;15.10;99.90;;;;;;5005608;28;20805;-69
2021/09/03 05:23:25;;;;;;;9.07;6.07;;;15.10;99.90;;;;;;4995879;28;20463;-69
2021/09/03 05:25:50;;;;;;;6.87;5.50;;;15.10;99.90;;;;;;5002458;28;20214;-69
2021/09/03 05:28:16;;;;;;;8.70;6.10;;;15.10;99.90;;;;;;4990465;28;20217;-69
2021/09/03 05:30:42;;;;;;;6.83;5.30;;;15.10;99.90;;;;;;4982654;28;20210;-69
2021/09/03 05:33:07;;;;;;;8.27;6.30;;;15.10;99.90;;;;;;5007919;28;20224;-69
2021/09/03 05:35:33;;;;;;;9.60;5.73;;;15.10;99.90;;;;;;5006873;28;20703;-69
2021/09/03 05:38:04;;;;;;;7.77;6.20;;;15.10;99.90;;;;;;5005531;28;20658;-69
2021/09/03 05:40:31;;;;;;;6.73;5.50;;;15.10;99.90;;;;;;5008303;28;20244;-69
2021/09/03 05:42:56;;;;;;;8.10;5.63;;;15.10;99.90;;;;;;4988032;28;21295;-69
2021/09/03 05:45:22;;;;;;;8.00;6.00;;;15.10;99.90;;;;;;4990760;28;20468;-69
2021/09/03 05:47:48;;;;;;;14.60;6.07;;;15.10;99.90;;;;;;5019396;28;20220;-69
2021/09/03 05:50:15;;;;;;;6.43;5.53;;;15.10;99.90;;;;;;4998490;28;20259;-69
2021/09/03 05:52:41;;;;;;;7.70;5.60;;;15.10;99.90;;;;;;5006472;28;20244;-69
2021/09/03 05:55:07;;;;;;;8.13;5.90;;;15.10;99.90;;;;;;4987089;28;20990;-69
2021/09/03 05:57:33;;;;;;;5.80;4.80;;;15.10;99.90;;;;;;5007292;28;20463;-69
2021/09/03 05:59:59;;;;;;;12.40;6.50;;;15.10;99.90;;;;;;4988291;28;20472;-69
2021/09/03 06:02:25;;;;;;;7.83;5.70;;;15.20;99.90;;;;;;4990296;28;20279;-69
2021/09/03 06:04:51;;;;;;;8.07;5.40;;;15.20;99.90;;;;;;5006573;28;20225;-70
2021/09/03 06:07:17;;;;;;;11.37;6.70;;;15.20;99.90;;;;;;5006291;28;20510;-69
2021/09/03 06:09:42;;;;;;;9.33;5.83;;;15.20;99.90;;;;;;5005499;28;20702;-70
2021/09/03 06:12:08;;;;;;;9.03;6.00;;;15.20;99.90;;;;;;5006642;28;20323;-69
2021/09/03 06:14:34;;;;;;;8.27;5.53;;;15.20;99.90;;;;;;5007103;28;20217;-70
2021/09/03 06:17:00;;;;;;;7.77;5.40;;;15.30;99.90;;;;;;4988837;28;20662;-69
2021/09/03 06:19:25;;;;;;;7.63;5.90;;;15.30;99.90;;;;;;4990906;28;20225;-69
2021/09/03 06:21:51;;;;;;;10.33;5.90;;;15.30;99.90;;;;;;4993528;28;20221;-69
2021/09/03 06:27:01;;;;;;;9.40;5.90;;;15.50;99.90;;;;;;5004879;28;20599;-69
2021/09/03 06:32:24;;;;;;;6.83;5.53;;;15.60;99.90;;;;;;5006207;28;20830;-69
2021/09/03 06:34:54;;;;;;;9.27;5.90;;;15.70;99.90;;;;;;4987321;28;20452;-69
2021/09/03 06:37:21;;;;;;;7.00;5.67;;;15.70;99.90;;;;;;4990520;28;20480;-69
2021/09/03 06:39:48;;;;;;;6.50;5.80;;;15.80;99.90;;;;;;5004582;28;20986;-70
2021/09/03 06:42:14;;;;;;;8.43;6.30;;;15.80;99.90;;;;;;4989684;28;20573;-69
2021/09/03 06:44:40;;;;;;;7.40;6.20;;;15.90;99.90;;;;;;4990252;28;20470;-69
2021/09/03 06:47:06;;;;;;;7.27;5.83;;;15.90;99.90;;;;;;4996749;28;20551;-69
2021/09/03 06:49:33;;;;;;;10.20;7.00;;;16.00;99.90;;;;;;5006133;28;20452;-69
2021/09/03 06:52:03;;;;;;;6.70;6.00;;;16.00;99.90;;;;;;4987025;28;20460;-70
2021/09/03 06:54:28;;;;;;;11.07;6.40;;;16.10;99.90;;;;;;4990333;28;20917;-69
2021/09/03 06:56:54;;;;;;;10.17;6.80;;;16.10;99.90;;;;;;4987579;28;20457;-69
2021/09/03 06:59:20;;;;;;;10.10;6.97;;;16.20;99.90;;;;;;5003797;28;20221;-68
2021/09/03 07:01:45;;;;;;;7.80;6.40;;;16.30;99.90;;;;;;4985080;28;20229;-70
2021/09/03 07:04:11;;;;;;;8.37;5.83;;;16.40;99.90;;;;;;5005021;28;20224;-68
2021/09/03 07:06:38;;;;;;;9.90;6.40;;;16.40;99.90;;;;;;4988944;28;20217;-69
2021/09/03 07:09:06;;;;;;;9.20;6.10;;;16.50;99.90;;;;;;4986240;28;20217;-69
2021/09/03 07:11:35;;;;;;;8.87;6.77;;;16.50;99.90;;;;;;4998374;28;20464;-69
2021/09/03 07:14:02;;;;;;;8.23;6.10;;;16.60;99.90;;;;;;4987057;28;20456;-70
2021/09/03 07:16:29;;;;;;;10.50;6.10;;;16.70;99.90;;;;;;4987990;28;20460;-68
2021/09/03 07:18:56;;;;;;;9.77;6.47;;;16.80;99.90;;;;;;4987656;28;20464;-70
2021/09/03 07:21:23;;;;;;;7.57;5.53;;;16.80;99.90;;;;;;4988729;28;20479;-69
2021/09/03 07:23:49;;;;;;;8.60;6.67;;;17.00;99.90;;;;;;4987311;28;20463;-70
2021/09/03 07:26:15;;;;;;;8.87;6.70;;;17.00;99.90;;;;;;4991425;28;20548;-70
2021/09/03 07:28:40;;;;;;;8.37;6.50;;;17.10;99.90;;;;;;4989341;28;20510;-69
2021/09/03 07:31:06;;;;;;;8.53;6.27;;;17.20;99.90;;;;;;5000727;28;20237;-70
2021/09/03 07:33:32;;;;;;;7.73;6.70;;;17.30;99.90;;;;;;4988408;28;20221;-69
2021/09/03 07:35:57;;;;;;;7.83;6.40;;;17.30;99.90;;;;;;4986649;28;20225;-70
2021/09/03 07:38:23;;;;;;;8.50;6.80;;;17.40;99.90;;;;;;5003890;28;20221;-70
2021/09/03 07:40:49;;;;;;;7.47;5.90;;;17.50;99.90;;;;;;5001301;28;20221;-69
2021/09/03 07:43:16;;;;;;;8.43;5.90;;;17.50;99.90;;;;;;5005028;28;20312;-70
2021/09/03 07:45:42;;;;;;;10.97;6.50;;;17.60;99.90;;;;;;5003559;28;20224;-69
2021/09/03 07:48:08;;;;;;;8.47;6.00;;;17.70;99.90;;;;;;5007601;28;20486;-69
2021/09/03 07:50:34;;;;;;;7.63;6.23;;;17.80;99.90;;;;;;5007350;28;21021;-70
2021/09/03 07:53:02;;;;;;;9.80;6.53;;;17.90;99.90;;;;;;4982967;28;20476;-70
2021/09/03 07:55:27;;;;;;;7.47;6.23;;;17.90;99.90;;;;;;4986339;28;20465;-70
2021/09/03 07:57:53;;;;;;;8.03;6.20;;;18.00;99.90;;;;;;5001220;28;20469;-69
2021/09/03 08:00:19;;;;;;;7.40;6.27;;;18.10;99.90;;;;;;5008494;28;20246;-69
2021/09/03 08:02:44;;;;;;;8.80;6.67;;;18.20;99.90;;;;;;4990886;28;20243;-69
2021/09/03 08:05:11;;;;;;;10.77;5.70;;;18.20;99.90;;;;;;5009008;28;20225;-68
2021/09/03 08:07:37;;;;;;;8.40;5.97;;;18.30;99.90;;;;;;5002718;28;20220;-70
2021/09/03 08:10:04;;;;;;;6.80;6.10;;;18.30;99.90;;;;;;4987691;28;20463;-70
2021/09/03 08:12:29;;;;;;;6.60;5.60;;;18.40;99.90;;;;;;4989082;28;20472;-70
2021/09/03 08:14:55;;;;;;;7.17;6.43;;;18.50;99.90;;;;;;4992676;28;20468;-70
2021/09/03 08:17:21;;;;;;;6.43;5.57;;;18.50;99.90;;;;;;5009065;28;20245;-69
2021/09/03 08:19:46;;;;;;;7.63;6.20;;;18.60;99.90;;;;;;4991275;28;20221;-70
2021/09/03 08:22:13;;;;;;;9.50;6.73;;;18.70;99.90;;;;;;5016982;28;20232;-70
2021/09/03 08:24:39;;;;;;;7.67;6.03;;;18.80;99.90;;;;;;4999095;28;20730;-70
2021/09/03 08:27:05;;;;;;;6.30;5.47;;;18.90;99.90;;;;;;5007086;28;20466;-69
2021/09/03 08:29:30;;;;;;;8.10;6.47;;;19.00;99.90;;;;;;4992568;28;20303;-70
2021/09/03 08:31:56;;;;;;;13.57;6.03;;;19.10;99.90;;;;;;4989681;28;20727;-70
2021/09/03 08:34:22;;;;;;;8.73;6.30;;;19.20;99.90;;;;;;5008259;28;20205;-70
2021/09/03 08:36:47;;;;;;;7.23;6.50;;;19.20;99.90;;;;;;5005963;28;20236;-70
2021/09/03 08:39:13;;;;;;;8.63;6.50;;;19.30;99.90;;;;;;5001951;28;20221;-68
2021/09/03 08:41:39;;;;;;;7.17;5.50;;;19.40;99.90;;;;;;5006815;28;20233;-71
2021/09/03 08:44:05;;;;;;;7.50;6.17;;;19.50;99.90;;;;;;5006110;28;20602;-69
2021/09/03 08:46:33;;;;;;;9.23;7.10;;;19.60;99.90;;;;;;4995722;28;20592;-70
2021/09/03 08:49:01;;;;;;;7.07;5.70;;;19.70;99.90;;;;;;4987237;28;20603;-70
2021/09/03 08:51:27;;;;;;;7.60;5.97;;;19.70;99.90;;;;;;5007520;28;20467;-69
2021/09/03 08:53:53;;;;;;;8.53;5.70;;;19.90;99.90;;;;;;4990201;28;20456;-69
2021/09/03 08:56:20;;;;;;;8.33;6.50;;;20.00;99.90;;;;;;4988911;28;20490;-70
2021/09/03 08:58:47;;;;;;;7.60;5.97;;;20.10;99.90;;;;;;4982688;28;20501;-70
2021/09/03 09:01:14;;;;;;;8.10;5.83;;;20.10;99.90;;;;;;4990823;28;20452;-70
2021/09/03 09:03:41;;;;;;;9.60;5.90;;;20.20;99.90;;;;;;5008211;28;20928;-69
2021/09/03 09:06:09;;;;;;;6.60;5.83;;;20.20;99.90;;;;;;5004968;28;20484;-69
2021/09/03 09:08:36;;;;;;;5.70;5.17;;;20.30;99.90;;;;;;4983755;28;20893;-70
2021/09/03 09:11:07;;;;;;;6.43;5.40;;;20.40;99.90;;;;;;4985419;28;22295;-69
2021/09/03 09:13:35;;;;;;;7.60;5.83;;;20.50;99.90;;;;;;5007756;28;20535;-69
2021/09/03 09:16:02;;;;;;;7.70;5.77;;;20.60;99.90;;;;;;5005598;28;20996;-70
2021/09/03 09:18:47;;;;;;;6.77;6.07;;;20.70;99.90;;;;;;4991792;28;20460;-69
2021/09/03 09:21:17;;;;;;;6.63;5.57;;;20.80;99.90;;;;;;4992065;28;20601;-69
2021/09/03 09:23:52;;;;;;;6.17;5.30;;;20.80;99.90;;;;;;5009255;28;20455;-70
2021/09/03 09:26:20;;;;;;;5.20;4.70;;;20.90;99.90;;;;;;5011271;28;20454;-69
2021/09/03 09:28:47;;;;;;;8.37;6.00;;;21.10;99.90;;;;;;5021545;28;20495;-69
2021/09/03 09:31:36;;;;;;;7.40;5.30;;;21.20;99.90;;;;;;4990314;28;20879;-70
2021/09/03 09:34:38;;;;;;;6.47;5.60;;;21.30;99.90;;;;;;4989645;28;20461;-70
2021/09/03 09:37:17;;;;;;;14.80;6.70;;;21.30;99.90;;;;;;4984827;28;20447;-70
2021/09/03 09:39:56;;;;;;;5.80;5.10;;;21.50;99.90;;;;;;4982634;28;20852;-70
2021/09/03 09:42:24;;;;;;;6.07;5.40;;;21.50;99.90;;;;;;4990609;28;20468;-69
2021/09/03 09:45:10;;;;;;;6.47;5.57;;;21.60;99.90;;;;;;4989550;28;20464;-70
2021/09/03 09:47:40;;;;;;;6.50;5.30;;;21.70;99.90;;;;;;5001269;28;20524;-69
2021/09/03 09:50:30;;;;;;;6.60;5.20;;;21.90;99.90;;;;;;4982036;28;20444;-70
2021/09/03 09:53:11;;;;;;;6.93;5.03;;;22.00;99.90;;;;;;4999350;28;20861;-70
2021/09/03 09:55:38;;;;;;;6.07;5.47;;;22.00;99.90;;;;;;4999501;28;20479;-70
2021/09/03 09:58:05;;;;;;;5.33;4.83;;;22.10;99.90;;;;;;4988954;28;20525;-70
2021/09/03 10:00:35;;;;;;;6.30;5.30;;;22.20;99.90;;;;;;5005736;28;20455;-70
2021/09/03 10:03:02;;;;;;;5.67;4.57;;;22.30;99.90;;;;;;4987338;28;20476;-70
2021/09/03 10:05:29;;;;;;;5.70;5.20;;;22.40;99.90;;;;;;4992518;28;20462;-70
2021/09/03 10:07:55;;;;;;;6.57;5.30;;;22.50;99.90;;;;;;5003647;28;20464;-69
2021/09/03 10:10:21;;;;;;;6.70;5.43;;;22.70;99.90;;;;;;4989807;28;20462;-71
2021/09/03 10:12:47;;;;;;;4.83;4.43;;;22.90;99.90;;;;;;4987111;28;20463;-70
2021/09/03 10:15:17;;;;;;;5.00;4.50;;;22.90;99.90;;;;;;5006103;28;20220;-69
2021/09/03 10:17:44;;;;;;;5.27;4.77;;;22.90;99.90;;;;;;5000847;28;20471;-71
2021/09/03 10:20:10;;;;;;;6.27;5.30;;;22.90;99.90;;;;;;4983299;28;20463;-70
2021/09/03 10:22:44;;;;;;;6.23;4.33;;;23.20;99.90;;;;;;4996409;28;20558;-69
2021/09/03 10:25:11;;;;;;;6.13;5.33;;;23.30;99.90;;;;;;5005768;28;20468;-69
2021/09/03 10:27:37;;;;;;;5.40;4.70;;;23.30;99.90;;;;;;5003906;28;20518;-70
2021/09/03 10:30:17;;;;;;;4.03;3.67;;;23.30;99.90;;;;;;5000762;28;20891;-70
2021/09/03 10:32:43;;;;;;;5.37;4.63;;;23.30;99.90;;;;;;5001740;28;20463;-69
2021/09/03 10:35:18;;;;;;;5.10;4.63;;;23.40;99.90;;;;;;4985993;28;20467;-69
2021/09/03 10:37:44;;;;;;;5.50;5.00;;;23.40;99.90;;;;;;4985609;28;20223;-71
2021/09/03 10:40:35;;;;;;;5.23;4.73;;;23.50;99.90;;;;;;5004146;28;20551;-70
2021/09/03 10:43:00;;;;;;;7.07;4.70;;;23.50;99.90;;;;;;5000328;28;20513;-70
2021/09/03 10:45:37;;;;;;;7.13;5.30;;;23.50;99.90;;;;;;5004665;28;20463;-69
2021/09/03 10:48:20;;;;;;;4.73;4.33;;;23.60;99.90;;;;;;5005020;28;20224;-70
2021/09/03 10:50:51;;;;;;;6.60;5.00;;;23.60;99.90;;;;;;5006840;28;20466;-69
2021/09/03 10:53:27;;;;;;;5.33;4.70;;;23.90;99.90;;;;;;4985871;28;20478;-69
2021/09/03 10:56:17;;;;;;;7.53;5.40;;;24.10;99.90;;;;;;5002441;28;21008;-70
2021/09/03 10:59:02;;;;;;;6.27;4.50;;;24.10;99.90;;;;;;4985228;28;21059;-70
2021/09/03 11:01:34;;;;;;;5.50;5.00;;;24.20;99.90;;;;;;5001829;28;20642;-70
2021/09/03 11:04:06;;;;;;;5.23;4.60;;;24.30;99.90;;;;;;4979029;28;20486;-69
2021/09/03 11:06:36;;;;;;;5.20;4.80;;;24.20;99.70;;;;;;4999122;28;20981;-69
2021/09/03 11:09:25;;;;;;;4.90;3.47;;;24.10;99.80;;;;;;4997472;28;20491;-69
2021/09/03 11:12:22;;;;;;;5.57;4.87;;;24.20;99.90;;;;;;4993975;28;21004;-70
2021/09/03 11:14:54;;;;;;;5.50;5.00;;;24.40;99.90;;;;;;4980182;28;20463;-69
2021/09/03 11:17:19;;;;;;;6.10;4.63;;;24.40;99.90;;;;;;4984239;28;20554;-70
2021/09/03 11:19:48;;;;;;;5.23;4.70;;;24.60;99.90;;;;;;4999706;28;20570;-70
2021/09/03 11:22:19;;;;;;;5.87;5.33;;;24.60;99.90;;;;;;4984493;28;20228;-70
2021/09/03 11:24:51;;;;;;;5.07;4.60;;;24.70;99.80;;;;;;4998206;28;20483;-70
2021/09/03 11:27:23;;;;;;;5.07;4.67;;;24.80;99.60;;;;;;4998110;28;20459;-69
2021/09/03 11:29:57;;;;;;;5.10;4.60;;;24.90;99.20;;;;;;4981239;28;20486;-70
2021/09/03 11:32:31;;;;;;;6.60;4.77;;;25.10;99.30;;;;;;4981582;28;20509;-69
2021/09/03 11:35:02;;;;;;;4.90;4.33;;;25.30;99.20;;;;;;4983070;28;20977;-70
2021/09/03 11:37:30;;;;;;;5.70;5.20;;;25.40;98.80;;;;;;4986153;28;20475;-70
2021/09/03 11:40:16;;;;;;;5.43;4.93;;;25.50;98.60;;;;;;4998986;28;21013;-70
2021/09/03 11:42:47;;;;;;;4.30;3.97;;;25.60;97.90;;;;;;4996280;28;20503;-70
2021/09/03 11:45:21;;;;;;;5.00;4.60;;;25.70;98.70;;;;;;5000322;28;20487;-70
2021/09/03 11:47:50;;;;;;;5.43;4.77;;;25.60;97.60;;;;;;4994121;28;20475;-70
2021/09/03 11:50:19;;;;;;;4.07;3.77;;;25.70;98.10;;;;;;4998096;28;20455;-68
2021/09/03 11:52:45;;;;;;;4.77;4.37;;;25.80;97.80;;;;;;4979855;28;20472;-69
2021/09/03 11:55:17;;;;;;;5.90;5.30;;;25.90;97.60;;;;;;4995167;28;20515;-70
2021/09/03 11:57:57;;;;;;;6.20;5.30;;;26.00;97.90;;;;;;4995632;28;20227;-70
2021/09/03 12:00:32;;;;;;;5.50;5.00;;;26.10;97.80;;;;;;4984578;28;20483;-70
2021/09/03 12:02:58;;;;;;;5.47;4.97;;;26.10;98.00;;;;;;4983308;28;21090;-70
2021/09/03 12:05:24;;;;;;;5.10;4.60;;;25.90;97.70;;;;;;4985678;28;20463;-69
2021/09/03 12:08:11;;;;;;;6.10;5.40;;;25.90;97.40;;;;;;4981357;28;21160;-69
2021/09/03 12:10:49;;;;;;;4.63;4.20;;;25.80;97.90;;;;;;4999560;28;20355;-70
2021/09/03 12:13:19;;;;;;;5.07;4.67;;;25.90;97.50;;;;;;4976185;28;20475;-70
2021/09/03 12:15:47;;;;;;;5.20;4.60;;;25.90;97.40;;;;;;4977691;28;20471;-71
2021/09/03 12:18:23;;;;;;;5.40;4.67;;;25.90;96.80;;;;;;4999293;28;20486;-69
2021/09/03 12:20:51;;;;;;;5.23;4.40;;;26.00;97.10;;;;;;4995168;28;20467;-69
2021/09/03 12:23:17;;;;;;;6.80;4.70;;;26.10;96.80;;;;;;4987872;28;20867;-70
2021/09/03 12:25:43;;;;;;;4.33;3.97;;;26.20;96.90;;;;;;4984087;28;20619;-70
2021/09/03 12:28:08;;;;;;;5.70;4.87;;;26.10;96.00;;;;;;4999255;28;20220;-70
2021/09/03 12:30:35;;;;;;;7.47;4.67;;;26.00;96.50;;;;;;4984505;28;20250;-70
2021/09/03 12:33:21;;;;;;;4.30;4.00;;;26.00;96.90;;;;;;4998665;28;20754;-69
2021/09/03 12:35:47;;;;;;;5.47;4.87;;;26.20;96.60;;;;;;4979444;28;20535;-70
2021/09/03 12:38:13;;;;;;;5.40;4.90;;;26.20;96.70;;;;;;4977462;28;20532;-68
2021/09/03 12:40:39;;;;;;;5.00;4.60;;;26.30;95.30;;;;;;4987304;28;20546;-69
2021/09/03 12:43:13;;;;;;;4.60;4.20;;;26.40;96.40;;;;;;5000473;28;20229;-69
2021/09/03 12:45:47;;;;;;;5.30;4.80;;;26.50;96.30;;;;;;4991814;28;20247;-69
2021/09/03 12:48:13;;;;;;;5.20;4.57;;;26.60;95.80;;;;;;5008531;28;20456;-70
2021/09/03 12:50:46;;;;;;;4.60;4.20;;;26.70;96.30;;;;;;5005534;28;20464;-70
2021/09/03 12:53:20;;;;;;;6.13;4.20;;;26.80;95.60;;;;;;5006683;28;20455;-70
2021/09/03 12:55:47;;;;;;;5.13;4.63;;;26.90;95.70;;;;;;5005235;28;20529;-70